Time;durP1;ratioP1;P1;durP2;ratioP2;P2;SDS_P1;SDS_P2;PMS_P1;PMS_P2;Temp;Humidity;BMP_temperature;BMP_pressure;BME280_temperature;BME280_humidity;BME280_pressure;Samples;Min_cycle;Max_cycle;Signal;HPM_P1;HPM_P2
2023/10/11 00:00:33;;;;;;;0.10;0.10;;;14.20;99.90;;;;;;5078246;28;20156;-87
2023/10/11 00:03:16;;;;;;;0.10;0.10;;;14.20;99.90;;;;;;5060224;28;20039;-82
2023/10/11 00:05:43;;;;;;;0.10;0.10;;;14.30;99.90;;;;;;5078457;28;20032;-77
2023/10/11 00:08:13;;;;;;;0.10;0.10;;;14.30;99.90;;;;;;5060396;28;20035;-76
2023/10/11 00:10:53;;;;;;;3.47;3.28;;;14.30;99.90;;;;;;5080103;28;20506;-77
2023/10/11 00:13:20;;;;;;;0.10;0.10;;;14.40;99.90;;;;;;5063654;28;20023;-77
2023/10/11 00:15:50;;;;;;;1.60;1.58;;;14.40;99.90;;;;;;5079579;28;20024;-81
2023/10/11 00:18:20;;;;;;;0.10;0.10;;;14.40;99.90;;;;;;5080981;28;20521;-76
2023/10/11 00:20:51;;;;;;;0.60;0.60;;;14.40;99.90;;;;;;5079806;28;20028;-76
2023/10/11 00:23:21;;;;;;;0.10;0.10;;;14.30;99.90;;;;;;5078537;28;20078;-85
2023/10/11 00:25:49;;;;;;;1.25;1.15;;;14.20;99.90;;;;;;5078494;28;20312;-78
2023/10/11 00:28:14;;;;;;;0.10;0.10;;;14.10;99.90;;;;;;5060599;28;20035;-86
2023/10/11 00:30:40;;;;;;;0.20;0.20;;;14.20;99.90;;;;;;5078858;28;20024;-75
2023/10/11 00:33:10;;;;;;;0.20;0.20;;;14.10;99.90;;;;;;5059468;28;20040;-77
2023/10/11 00:35:50;;;;;;;0.20;0.20;;;13.60;99.90;;;;;;5078654;28;20020;-81
2023/10/11 00:38:20;;;;;;;0.10;0.10;;;14.00;99.90;;;;;;5077943;28;20024;-76
2023/10/11 00:41:07;;;;;;;0.20;0.20;;;13.90;99.90;;;;;;5078359;28;20031;-76
2023/10/11 00:43:34;;;;;;;0.20;0.20;;;13.70;99.90;;;;;;5078032;28;20029;-76
2023/10/11 00:46:01;;;;;;;0.10;0.10;;;13.70;99.90;;;;;;5078062;28;20020;-77
2023/10/11 00:48:29;;;;;;;0.10;0.10;;;13.70;99.90;;;;;;5077943;28;20012;-76
2023/10/11 00:50:56;;;;;;;0.20;0.20;;;13.60;99.90;;;;;;5078053;28;20024;-81
2023/10/11 00:53:26;;;;;;;0.13;0.13;;;13.50;99.90;;;;;;5077827;28;20031;-85
2023/10/11 00:55:55;;;;;;;0.10;0.10;;;13.40;99.90;;;;;;5078267;28;20039;-83
2023/10/11 00:58:22;;;;;;;0.10;0.10;;;13.30;99.90;;;;;;5077740;28;20515;-81
2023/10/11 01:00:49;;;;;;;20.35;9.05;;;13.30;99.90;;;;;;5078167;28;20016;-80
2023/10/11 01:03:17;;;;;;;0.40;0.40;;;13.20;99.90;;;;;;5078524;28;20035;-81
2023/10/11 01:05:44;;;;;;;0.10;0.10;;;13.60;99.90;;;;;;5078627;28;20193;-76
2023/10/11 01:08:13;;;;;;;0.17;0.17;;;13.20;99.90;;;;;;5078340;28;20016;-76
2023/10/11 01:10:45;;;;;;;0.10;0.10;;;13.20;99.90;;;;;;5078640;28;20020;-81
2023/10/11 01:13:14;;;;;;;0.10;0.10;;;13.10;99.90;;;;;;5079094;28;20078;-77
2023/10/11 01:15:43;;;;;;;0.17;0.17;;;13.10;99.90;;;;;;5078061;28;20063;-75
2023/10/11 01:18:28;;;;;;;0.20;0.20;;;13.10;99.90;;;;;;5055369;28;20229;-78
2023/10/11 01:20:54;;;;;;;0.20;0.20;;;13.10;99.90;;;;;;5054732;28;20458;-75
2023/10/11 01:23:21;;;;;;;0.10;0.10;;;13.00;99.90;;;;;;5055259;28;20032;-76
2023/10/11 01:25:47;;;;;;;0.10;0.10;;;13.00;99.90;;;;;;5058072;28;20107;-76
2023/10/11 01:28:14;;;;;;;0.15;0.15;;;13.00;99.90;;;;;;5056993;28;20447;-76
2023/10/11 01:30:40;;;;;;;0.10;0.10;;;13.00;99.90;;;;;;5060065;28;20021;-77
2023/10/11 01:33:07;;;;;;;0.25;0.25;;;13.00;99.90;;;;;;5045190;28;20033;-76
2023/10/11 01:35:52;;;;;;;0.10;0.10;;;13.00;99.90;;;;;;5035798;28;20033;-75
2023/10/11 01:38:18;;;;;;;0.57;0.57;;;13.00;99.90;;;;;;5036657;28;20049;-79
2023/10/11 01:40:44;;;;;;;2.15;1.90;;;12.90;99.90;;;;;;5041871;28;20353;-76
2023/10/11 01:43:10;;;;;;;0.20;0.20;;;12.90;99.90;;;;;;5044371;28;20162;-80
2023/10/11 01:45:39;;;;;;;1.05;1.05;;;12.90;99.90;;;;;;5045817;28;20063;-75
2023/10/11 01:48:06;;;;;;;0.10;0.10;;;12.90;99.90;;;;;;5048542;28;20621;-75
2023/10/11 01:50:33;;;;;;;0.10;0.10;;;12.80;99.90;;;;;;5043918;28;20064;-76
2023/10/11 01:53:08;;;;;;;0.20;0.20;;;12.90;99.90;;;;;;5043192;28;20341;-76
2023/10/11 01:55:39;;;;;;;0.28;0.28;;;12.80;99.90;;;;;;5041041;28;20059;-76
2023/10/11 01:58:06;;;;;;;0.35;0.35;;;12.80;99.90;;;;;;5046392;28;20036;-76
2023/10/11 02:00:33;;;;;;;0.10;0.10;;;12.80;99.90;;;;;;5041679;28;20491;-75
2023/10/11 02:03:13;;;;;;;0.10;0.10;;;12.70;99.90;;;;;;5044872;28;20025;-75
2023/10/11 02:05:39;;;;;;;0.10;0.10;;;12.70;99.90;;;;;;5049572;28;20071;-76
2023/10/11 02:08:06;;;;;;;0.75;0.75;;;12.70;99.90;;;;;;5050291;28;20294;-75
2023/10/11 02:10:36;;;;;;;0.25;0.25;;;12.60;99.90;;;;;;5051629;28;20029;-75
2023/10/11 02:13:04;;;;;;;0.10;0.10;;;12.60;99.90;;;;;;5042465;28;20032;-76
2023/10/11 02:15:30;;;;;;;0.10;0.10;;;12.60;99.90;;;;;;5055449;28;20033;-75
2023/10/11 02:17:58;;;;;;;0.10;0.10;;;12.60;99.90;;;;;;5076779;28;20044;-76
2023/10/11 02:20:24;;;;;;;1.45;1.45;;;12.50;99.90;;;;;;5075919;28;20488;-76
2023/10/11 02:22:59;;;;;;;0.10;0.10;;;12.50;99.90;;;;;;5073531;28;20024;-75
2023/10/11 02:25:25;;;;;;;0.10;0.10;;;12.50;99.90;;;;;;5073540;28;20096;-76
2023/10/11 02:27:53;;;;;;;0.10;0.10;;;12.50;99.90;;;;;;5072174;28;20332;-75
2023/10/11 02:30:25;;;;;;;0.13;0.13;;;12.50;99.90;;;;;;5056230;28;20044;-75
2023/10/11 02:32:53;;;;;;;0.10;0.10;;;12.40;99.90;;;;;;5072670;28;20056;-76
2023/10/11 02:35:28;;;;;;;0.10;0.10;;;12.40;99.90;;;;;;5065958;28;20627;-76
2023/10/11 02:37:59;;;;;;;0.15;0.15;;;12.40;99.90;;;;;;5064871;28;20108;-75
2023/10/11 02:40:25;;;;;;;0.10;0.10;;;12.30;99.90;;;;;;5047274;28;20025;-76
2023/10/11 02:42:55;;;;;;;0.20;0.20;;;12.30;99.90;;;;;;5074470;28;20025;-75
2023/10/11 02:45:22;;;;;;;0.20;0.20;;;12.30;99.90;;;;;;5074013;28;20020;-75
2023/10/11 02:47:49;;;;;;;0.10;0.10;;;12.30;99.90;;;;;;5067763;28;20021;-75
2023/10/11 02:50:15;;;;;;;0.10;0.10;;;12.30;99.90;;;;;;5075603;28;20467;-75
2023/10/11 02:52:42;;;;;;;0.10;0.10;;;12.20;99.90;;;;;;5073965;28;20016;-75
2023/10/11 02:57:44;;;;;;;0.10;0.10;;;12.20;99.90;;;;;;5075134;28;20047;-75
2023/10/11 03:00:23;;;;;;;0.10;0.10;;;12.20;99.90;;;;;;5065341;28;20025;-75
2023/10/11 03:02:57;;;;;;;0.10;0.10;;;12.20;99.90;;;;;;5075537;28;20016;-75
2023/10/11 03:05:29;;;;;;;3.40;3.03;;;12.10;99.90;;;;;;5071285;28;20561;-76
2023/10/11 03:08:14;;;;;;;0.10;0.10;;;12.10;99.90;;;;;;5072032;28;20024;-75
2023/10/11 03:10:45;;;;;;;0.10;0.10;;;12.10;99.90;;;;;;5066005;28;20332;-75
2023/10/11 03:13:30;;;;;;;0.10;0.10;;;12.10;99.90;;;;;;5073100;28;20033;-75
2023/10/11 03:15:58;;;;;;;0.10;0.10;;;12.00;99.90;;;;;;5054181;28;20470;-75
2023/10/11 03:18:32;;;;;;;0.10;0.10;;;12.00;99.90;;;;;;5074375;28;20241;-75
2023/10/11 03:21:17;;;;;;;0.10;0.10;;;12.00;99.90;;;;;;5074849;28;20082;-75
2023/10/11 03:23:48;;;;;;;0.10;0.10;;;11.90;99.90;;;;;;5075882;28;20047;-75
2023/10/11 03:28:45;;;;;;;0.10;0.10;;;11.80;99.90;;;;;;5077784;28;20020;-76
2023/10/11 03:31:12;;;;;;;0.10;0.10;;;11.80;99.90;;;;;;5072390;28;20044;-75
2023/10/11 03:33:43;;;;;;;0.10;0.10;;;11.80;99.90;;;;;;5062940;28;20069;-75
2023/10/11 03:36:18;;;;;;;0.20;0.20;;;11.80;99.90;;;;;;5080709;28;20244;-75
2023/10/11 03:38:53;;;;;;;0.10;0.10;;;11.80;99.90;;;;;;5060614;28;20044;-75
2023/10/11 03:41:28;;;;;;;0.20;0.20;;;11.80;99.90;;;;;;5075399;28;20142;-78
2023/10/11 03:43:54;;;;;;;0.10;0.10;;;11.80;99.90;;;;;;5054891;28;20481;-75
2023/10/11 03:46:25;;;;;;;0.10;0.10;;;11.80;99.90;;;;;;5048157;28;20033;-75
2023/10/11 03:48:54;;;;;;;0.10;0.10;;;11.70;99.90;;;;;;5062589;28;20324;-75
2023/10/11 03:51:20;;;;;;;0.10;0.10;;;11.70;99.90;;;;;;5068689;28;20020;-75
2023/10/11 03:53:47;;;;;;;0.10;0.10;;;11.70;99.90;;;;;;5074750;28;20034;-75
2023/10/11 03:56:20;;;;;;;0.10;0.10;;;11.70;99.90;;;;;;5067224;28;20021;-75
2023/10/11 03:58:50;;;;;;;0.10;0.10;;;11.60;99.90;;;;;;5065256;28;20024;-75
2023/10/11 04:03:49;;;;;;;0.10;0.10;;;11.60;99.90;;;;;;5071210;28;20017;-75
2023/10/11 04:06:15;;;;;;;0.15;0.15;;;11.60;99.90;;;;;;5054310;28;20024;-75
2023/10/11 04:08:57;;;;;;;0.10;0.10;;;11.60;99.90;;;;;;5063953;28;20555;-76
2023/10/11 04:11:37;;;;;;;0.10;0.10;;;11.60;99.90;;;;;;5067422;28;20020;-75
2023/10/11 04:14:12;;;;;;;0.20;0.20;;;11.60;99.90;;;;;;5069806;28;20047;-75
2023/10/11 04:16:44;;;;;;;0.10;0.10;;;11.60;99.90;;;;;;5064258;28;20035;-75
2023/10/11 04:19:10;;;;;;;2.25;2.15;;;11.50;99.90;;;;;;5067862;28;20345;-75
2023/10/11 04:21:54;;;;;;;2.58;2.47;;;11.60;99.90;;;;;;5047209;28;20028;-75
2023/10/11 04:24:23;;;;;;;0.10;0.10;;;11.60;99.90;;;;;;5062601;28;20067;-75
2023/10/11 04:27:45;;;;;;;0.10;0.10;;;11.60;99.90;;;;;;5065169;28;20021;-75
2023/10/11 04:29:44;;;;;;;0.10;0.10;;;11.50;99.90;;;;;;5069822;28;20047;-75
2023/10/11 04:32:14;;;;;;;0.10;0.10;;;11.50;99.90;;;;;;5070585;28;20048;-75
2023/10/11 04:34:55;;;;;;;0.10;0.10;;;11.50;99.90;;;;;;5049025;28;20475;-75
2023/10/11 04:37:43;;;;;;;0.10;0.10;;;11.50;99.90;;;;;;5062386;28;20025;-75
2023/10/11 04:43:06;;;;;;;0.10;0.10;;;11.40;99.90;;;;;;5069505;28;20039;-75
2023/10/11 04:45:46;;;;;;;0.10;0.10;;;11.40;99.90;;;;;;5071495;28;20028;-75
2023/10/11 04:48:39;;;;;;;0.10;0.10;;;11.40;99.90;;;;;;5068257;28;20310;-76
2023/10/11 04:51:21;;;;;;;1.40;1.35;;;11.30;99.90;;;;;;5065385;28;20495;-76
2023/10/11 04:53:56;;;;;;;0.10;0.10;;;11.30;99.90;;;;;;5063998;28;20036;-75
2023/10/11 04:59:11;;;;;;;0.10;0.10;;;11.30;99.90;;;;;;5065928;28;20028;-75
2023/10/11 05:04:26;;;;;;;0.10;0.10;;;11.20;99.90;;;;;;5063457;28;20024;-75
2023/10/11 05:06:53;;;;;;;0.10;0.10;;;11.20;99.90;;;;;;5062512;28;20293;-76
2023/10/11 05:09:38;;;;;;;0.10;0.10;;;11.20;99.90;;;;;;5069190;28;20012;-75
2023/10/11 05:12:22;;;;;;;0.10;0.10;;;11.90;99.90;;;;;;5078547;28;20041;-75
2023/10/11 05:27:47;;;;;;;0.10;0.10;;;11.20;99.90;;;;;;5084843;28;20025;-76
2023/10/11 05:30:28;;;;;;;5.75;4.32;;;11.20;99.90;;;;;;5082628;28;20142;-77
2023/10/11 05:52:55;;;;;;;9.85;8.45;;;11.50;99.90;;;;;;5057234;28;20439;-75
2023/10/11 05:55:22;;;;;;;0.20;0.20;;;12.10;99.90;;;;;;5080098;28;20048;-76
2023/10/11 05:57:50;;;;;;;5.32;4.95;;;11.50;99.90;;;;;;5079457;28;20020;-75
2023/10/11 06:00:23;;;;;;;0.10;0.10;;;12.20;99.90;;;;;;5072164;28;20067;-76
2023/10/11 06:02:53;;;;;;;0.65;0.65;;;11.60;99.90;;;;;;5033940;28;20023;-76
2023/10/11 06:05:23;;;;;;;0.43;0.43;;;11.60;99.90;;;;;;5073869;28;20146;-75
2023/10/11 06:08:03;;;;;;;1.67;1.65;;;11.70;99.90;;;;;;5069497;28;20186;-75
2023/10/11 06:10:41;;;;;;;22.50;20.25;;;11.70;99.90;;;;;;5074463;28;20107;-75
2023/10/11 06:13:15;;;;;;;0.10;0.10;;;11.80;99.90;;;;;;5074289;28;20070;-75
2023/10/11 06:15:55;;;;;;;0.20;0.20;;;11.90;99.90;;;;;;5063832;28;20424;-75
2023/10/11 06:21:18;;;;;;;10.75;10.27;;;11.90;99.90;;;;;;5069654;28;20038;-76
2023/10/11 06:23:45;;;;;;;0.10;0.10;;;12.00;99.90;;;;;;5073141;28;20016;-75
2023/10/11 06:26:52;;;;;;;0.40;0.40;;;12.20;99.90;;;;;;5079284;28;20020;-76
2023/10/11 06:29:18;;;;;;;1.75;1.65;;;12.20;99.90;;;;;;5076347;28;20032;-75
2023/10/11 06:31:46;;;;;;;0.10;0.10;;;12.40;99.90;;;;;;5077560;28;20421;-76
2023/10/11 06:37:08;;;;;;;12.15;8.18;;;12.50;99.90;;;;;;5024334;28;20084;-76
2023/10/11 06:42:21;;;;;;;0.10;0.10;;;12.70;99.90;;;;;;5024499;28;20057;-75
2023/10/11 06:44:54;;;;;;;0.20;0.20;;;12.80;99.90;;;;;;5015962;28;20022;-76
2023/10/11 06:47:22;;;;;;;0.10;0.10;;;12.90;99.90;;;;;;5029022;28;20516;-74
2023/10/11 06:49:55;;;;;;;0.52;0.52;;;13.00;99.90;;;;;;5024659;28;20029;-81
2023/10/11 06:52:25;;;;;;;0.10;0.10;;;16.40;99.90;;;;;;5020568;28;20022;-77
2023/10/11 06:57:39;;;;;;;0.25;0.25;;;13.30;99.90;;;;;;5019062;28;20052;-78
2023/10/11 07:00:22;;;;;;;0.75;0.75;;;13.40;99.90;;;;;;5017711;28;20037;-85
2023/10/11 07:02:52;;;;;;;1.90;1.80;;;13.50;99.90;;;;;;5016709;28;20106;-78
2023/10/11 07:05:20;;;;;;;0.20;0.20;;;13.50;99.90;;;;;;5016377;28;20283;-81
2023/10/11 07:07:51;;;;;;;4.15;3.72;;;13.60;99.90;;;;;;5015953;28;20545;-75
2023/10/11 07:10:33;;;;;;;4.15;3.20;;;13.70;99.90;;;;;;4999646;28;20426;-74
2023/10/11 07:13:04;;;;;;;0.10;0.10;;;13.80;99.90;;;;;;5017873;28;20083;-82
2023/10/11 07:15:40;;;;;;;0.10;0.10;;;14.00;99.90;;;;;;5079503;28;20403;-84
2023/10/11 07:18:08;;;;;;;0.20;0.20;;;14.60;99.90;;;;;;5078904;28;20311;-81
2023/10/11 07:23:22;;;;;;;0.30;0.30;;;14.40;99.90;;;;;;5079812;28;20347;-82
2023/10/11 07:28:37;;;;;;;0.10;0.10;;;14.70;99.90;;;;;;5083504;28;20570;-83
2023/10/11 07:31:13;;;;;;;0.35;0.35;;;14.90;99.90;;;;;;5084296;28;20036;-76
2023/10/11 07:33:39;;;;;;;0.10;0.10;;;15.00;99.90;;;;;;5085954;28;20008;-80
2023/10/11 07:36:11;;;;;;;0.15;0.15;;;15.20;99.90;;;;;;5081105;28;20051;-78
2023/10/11 07:38:43;;;;;;;0.10;0.10;;;15.30;99.90;;;;;;5078896;28;20043;-79
2023/10/11 07:41:17;;;;;;;1.15;1.15;;;15.50;99.90;;;;;;5079860;28;20249;-79
2023/10/11 07:43:47;;;;;;;0.20;0.20;;;15.60;99.90;;;;;;5079137;28;20036;-76
2023/10/11 07:46:13;;;;;;;0.20;0.20;;;15.70;99.90;;;;;;5062391;28;20212;-77
2023/10/11 07:48:40;;;;;;;0.30;0.30;;;15.80;99.90;;;;;;5078582;28;20024;-85
2023/10/11 07:51:09;;;;;;;1.45;1.35;;;15.90;99.90;;;;;;5079701;28;20131;-75
2023/10/11 07:53:45;;;;;;;0.15;0.15;;;16.00;99.90;;;;;;5061097;28;20028;-87
2023/10/11 07:56:16;;;;;;;2.65;2.55;;;16.10;99.90;;;;;;5061546;28;20052;-74
2023/10/11 07:58:45;;;;;;;2.72;2.30;;;16.30;99.90;;;;;;5059943;28;20109;-79
2023/10/11 08:01:23;;;;;;;3.10;3.00;;;16.50;99.90;;;;;;5061090;28;20412;-75
2023/10/11 08:03:49;;;;;;;4.57;3.40;;;16.60;99.90;;;;;;5078731;28;20196;-78
2023/10/11 08:06:14;;;;;;;0.63;0.63;;;16.70;99.90;;;;;;5078404;28;20371;-79
2023/10/11 08:08:43;;;;;;;0.82;0.82;;;16.40;99.90;;;;;;5078924;28;20039;-77
2023/10/11 08:11:22;;;;;;;0.10;0.10;;;16.50;99.90;;;;;;5078991;28;20167;-79
2023/10/11 08:13:49;;;;;;;0.20;0.20;;;16.60;99.90;;;;;;5059902;28;20460;-74
2023/10/11 08:16:19;;;;;;;0.10;0.10;;;16.70;99.90;;;;;;5078643;28;20199;-74
2023/10/11 08:18:49;;;;;;;0.22;0.22;;;16.90;99.90;;;;;;5079122;28;20081;-87
2023/10/11 08:21:16;;;;;;;0.10;0.10;;;16.90;99.90;;;;;;5079403;28;20055;-75
2023/10/11 08:23:42;;;;;;;0.52;0.47;;;17.10;99.90;;;;;;5060008;28;20026;-79
2023/10/11 08:26:14;;;;;;;0.10;0.10;;;17.20;99.90;;;;;;5078094;28;20489;-78
2023/10/11 08:28:48;;;;;;;0.10;0.10;;;17.90;99.90;;;;;;5078095;28;20296;-75
2023/10/11 08:34:07;;;;;;;0.40;0.40;;;17.40;99.90;;;;;;4996794;28;20093;-75
2023/10/11 08:36:33;;;;;;;3.00;2.83;;;;;;;;;;4994808;28;20151;-74
2023/10/11 08:39:06;;;;;;;0.20;0.20;;;17.60;99.90;;;;;;4978417;28;20073;-74
2023/10/11 08:41:34;;;;;;;0.10;0.10;;;17.80;99.90;;;;;;4995052;28;20109;-80
2023/10/11 08:44:15;;;;;;;1.58;1.55;;;17.80;99.90;;;;;;4995606;28;20338;-78
2023/10/11 08:46:48;;;;;;;0.40;0.40;;;17.90;99.90;;;;;;4995553;28;20258;-75
2023/10/11 08:49:17;;;;;;;0.80;0.80;;;18.00;99.90;;;;;;5000011;28;20022;-81
2023/10/11 08:51:43;;;;;;;0.10;0.10;;;18.00;99.90;;;;;;4999639;28;20034;-78
2023/10/11 08:54:16;;;;;;;0.20;0.20;;;18.20;99.90;;;;;;5000341;28;20067;-79
2023/10/11 08:56:54;;;;;;;1.92;1.70;;;18.40;99.90;;;;;;5000355;28;20408;-76
2023/10/11 08:59:25;;;;;;;0.10;0.10;;;16.60;99.90;;;;;;5000263;28;20046;-77
2023/10/11 09:01:54;;;;;;;0.10;0.10;;;18.80;99.90;;;;;;5000141;28;20049;-77
2023/10/11 09:04:26;;;;;;;2.67;2.55;;;19.60;99.90;;;;;;4983939;28;20034;-82
2023/10/11 09:06:57;;;;;;;3.72;2.17;;;18.80;99.90;;;;;;4983350;28;20556;-77
2023/10/11 09:09:39;;;;;;;0.47;0.47;;;18.80;99.90;;;;;;4999666;28;20542;-75
2023/10/11 09:12:24;;;;;;;0.10;0.10;;;19.00;99.90;;;;;;5072056;28;20043;-76
2023/10/11 09:15:00;;;;;;;0.30;0.30;;;19.10;99.90;;;;;;5062803;28;20252;-77
2023/10/11 09:17:33;;;;;;;0.10;0.10;;;19.20;99.90;;;;;;5081201;28;20465;-80
2023/10/11 09:20:00;;;;;;;0.00;0.00;;;19.30;99.90;;;;;;5063588;28;20320;-79
2023/10/11 09:22:30;;;;;;;0.57;0.40;;;19.30;99.90;;;;;;5084994;28;20482;-78
2023/10/11 09:25:07;;;;;;;0.10;0.10;;;19.40;99.90;;;;;;5087314;28;20103;-85
2023/10/11 09:27:51;;;;;;;8.48;2.65;;;16.40;99.90;;;;;;5068757;28;20047;-76
2023/10/11 09:30:21;;;;;;;0.10;0.10;;;19.60;99.90;;;;;;5081454;28;20085;-77
2023/10/11 09:33:15;;;;;;;0.55;0.55;;;19.60;99.90;;;;;;5062179;28;20585;-87
2023/10/11 09:35:34;;;;;;;2.78;1.08;;;19.70;99.90;;;;;;5080324;28;20541;-81
2023/10/11 09:38:00;;;;;;;0.60;0.60;;;19.90;99.90;;;;;;5081393;28;20249;-85
2023/10/11 09:40:35;;;;;;;0.43;0.43;;;19.90;99.90;;;;;;5082152;28;20035;-88
2023/10/11 09:43:02;;;;;;;0.25;0.25;;;19.90;99.90;;;;;;5082301;28;20019;-83
2023/10/11 09:45:41;;;;;;;0.10;0.10;;;19.90;99.90;;;;;;5081567;28;20502;-79
2023/10/11 09:48:17;;;;;;;0.22;0.22;;;20.10;99.90;;;;;;5064306;28;20103;-78
2023/10/11 09:50:44;;;;;;;0.10;0.10;;;20.40;99.90;;;;;;5082130;28;20051;-82
2023/10/11 09:53:14;;;;;;;0.10;0.10;;;20.60;99.90;;;;;;5080790;28;20028;-76
2023/10/11 09:56:00;;;;;;;0.60;0.60;;;20.60;99.90;;;;;;5063472;28;20304;-80
2023/10/11 09:58:40;;;;;;;5.28;1.98;;;20.50;99.90;;;;;;5081221;28;20157;-82
2023/10/11 10:01:26;;;;;;;1.17;0.63;;;20.70;99.90;;;;;;5080789;28;20024;-76
2023/10/11 10:03:52;;;;;;;3.83;3.60;;;20.90;99.90;;;;;;5063097;28;20047;-88
2023/10/11 10:06:19;;;;;;;0.82;0.82;;;21.10;99.90;;;;;;5063113;28;20082;-77
2023/10/11 10:08:50;;;;;;;0.10;0.10;;;21.10;99.90;;;;;;5080564;28;20301;-76
2023/10/11 10:11:19;;;;;;;0.10;0.10;;;21.00;99.90;;;;;;5081078;28;20020;-82
2023/10/11 10:14:24;;;;;;;0.20;0.20;;;21.00;99.90;;;;;;5063052;28;20248;-82
2023/10/11 10:17:12;;;;;;;1.17;1.17;;;21.30;99.90;;;;;;5080840;28;20308;-77
2023/10/11 10:19:45;;;;;;;0.65;0.65;;;21.40;99.90;;;;;;5080778;28;20024;-82
2023/10/11 10:22:15;;;;;;;0.30;0.30;;;21.40;99.90;;;;;;5081014;28;20111;-84
2023/10/11 10:24:43;;;;;;;0.80;0.80;;;21.20;99.90;;;;;;5080662;28;20100;-80
2023/10/11 10:27:35;;;;;;;2.40;2.30;;;21.40;99.90;;;;;;5062530;28;20078;-88
2023/10/11 10:30:06;;;;;;;0.10;0.10;;;21.50;99.90;;;;;;5017551;28;20041;-77
2023/10/11 10:32:33;;;;;;;0.63;0.63;;;21.60;99.90;;;;;;5016058;28;20623;-88
2023/10/11 10:35:19;;;;;;;0.10;0.10;;;21.70;99.90;;;;;;5017085;28;20566;-76
2023/10/11 10:37:55;;;;;;;0.82;0.82;;;22.00;99.90;;;;;;4999922;28;20031;-77
2023/10/11 10:40:26;;;;;;;2.33;1.48;;;22.20;99.90;;;;;;5016058;28;20044;-78
2023/10/11 10:43:07;;;;;;;0.10;0.10;;;22.20;99.90;;;;;;5017056;28;20108;-79
2023/10/11 10:45:35;;;;;;;0.10;0.10;;;22.10;99.90;;;;;;5017562;28;20060;-82
2023/10/11 10:48:14;;;;;;;1.20;1.20;;;22.30;99.90;;;;;;5016488;28;20029;-77
2023/10/11 10:50:47;;;;;;;0.10;0.10;;;22.50;99.90;;;;;;5017081;28;20531;-79
2023/10/11 10:53:14;;;;;;;3.42;3.15;;;22.70;99.90;;;;;;5016468;28;20364;-79
2023/10/11 10:55:44;;;;;;;2.22;2.13;;;22.80;99.90;;;;;;5016084;28;20104;-78
2023/10/11 10:58:20;;;;;;;0.10;0.10;;;22.90;99.90;;;;;;4999924;28;20025;-79
2023/10/11 11:00:59;;;;;;;0.43;0.43;;;23.20;99.90;;;;;;5016597;28;20690;-79
2023/10/11 11:03:31;;;;;;;1.15;0.63;;;23.20;99.90;;;;;;5016420;28;20029;-86
2023/10/11 11:05:59;;;;;;;0.10;0.10;;;23.40;99.90;;;;;;5018886;28;20060;-77
2023/10/11 11:08:28;;;;;;;0.10;0.10;;;23.50;99.90;;;;;;5061443;28;20024;-85
2023/10/11 11:10:59;;;;;;;0.10;0.10;;;23.60;99.90;;;;;;5078332;28;20016;-82
2023/10/11 11:13:28;;;;;;;0.20;0.20;;;23.50;99.90;;;;;;5079714;28;20020;-77
2023/10/11 11:15:58;;;;;;;0.10;0.10;;;23.70;99.90;;;;;;5079642;28;20103;-77
2023/10/11 11:18:34;;;;;;;0.20;0.20;;;23.80;99.90;;;;;;5078769;28;20390;-78
2023/10/11 11:21:17;;;;;;;0.10;0.10;;;23.90;99.90;;;;;;5078938;28;20032;-82
2023/10/11 11:23:45;;;;;;;0.35;0.35;;;25.70;99.90;;;;;;5079047;28;20316;-79
2023/10/11 11:26:16;;;;;;;0.35;0.35;;;23.90;99.90;;;;;;5060698;28;20564;-78
2023/10/11 11:28:46;;;;;;;0.82;0.82;;;23.80;99.90;;;;;;5079142;28;20602;-82
2023/10/11 11:31:30;;;;;;;0.05;0.05;;;24.20;99.90;;;;;;5078976;28;20209;-79
2023/10/11 11:34:12;;;;;;;1.05;1.02;;;24.50;99.90;;;;;;5078935;28;20274;-77
2023/10/11 11:36:41;;;;;;;0.10;0.10;;;24.80;99.50;;;;;;5061580;28;20050;-80
2023/10/11 11:39:25;;;;;;;0.20;0.20;;;24.90;99.40;;;;;;5079153;28;20043;-76
2023/10/11 11:41:55;;;;;;;0.17;0.17;;;25.10;98.80;;;;;;5060225;28;20073;-80
2023/10/11 11:44:27;;;;;;;0.05;0.05;;;25.00;99.20;;;;;;5060373;28;20028;-79
2023/10/11 11:46:54;;;;;;;0.10;0.10;;;23.50;98.10;;;;;;5079669;28;20312;-75
2023/10/11 11:49:22;;;;;;;21.10;1.95;;;25.30;97.90;;;;;;5059829;28;20065;-77
2023/10/11 11:51:52;;;;;;;0.10;0.10;;;25.50;96.70;;;;;;5060962;28;20088;-78
2023/10/11 11:54:22;;;;;;;1.88;1.77;;;25.40;96.90;;;;;;5060588;28;20024;-77
2023/10/11 11:56:54;;;;;;;0.38;0.32;;;25.90;97.80;;;;;;5059754;28;20016;-80
2023/10/11 11:59:24;;;;;;;0.00;0.00;;;25.70;97.10;;;;;;5077874;28;20081;-77
2023/10/11 12:01:56;;;;;;;0.10;0.10;;;25.90;96.70;;;;;;5060567;28;20016;-79
2023/10/11 12:04:29;;;;;;;0.10;0.10;;;25.90;95.70;;;;;;5077929;28;20055;-79
2023/10/11 12:06:59;;;;;;;0.13;0.13;;;26.00;95.40;;;;;;5077994;28;20026;-80
2023/10/11 12:09:31;;;;;;;0.45;0.45;;;26.20;95.40;;;;;;5060545;28;20036;-77
2023/10/11 12:12:04;;;;;;;0.00;0.00;;;26.30;94.30;;;;;;5060898;28;20074;-82
2023/10/11 12:14:30;;;;;;;5.10;1.65;;;26.60;93.90;;;;;;5078598;28;20118;-81
2023/10/11 12:16:57;;;;;;;0.10;0.10;;;26.70;93.20;;;;;;5078151;28;20016;-85
2023/10/11 12:19:23;;;;;;;1.80;0.98;;;26.80;93.10;;;;;;5078466;28;20518;-83
2023/10/11 12:21:57;;;;;;;0.40;0.40;;;26.70;92.30;;;;;;5078200;28;20038;-76
2023/10/11 12:24:24;;;;;;;0.28;0.28;;;26.80;92.20;;;;;;5060568;28;20024;-80
2023/10/11 12:26:50;;;;;;;0.20;0.20;;;26.90;91.70;;;;;;5078189;28;20020;-82
2023/10/11 12:29:18;;;;;;;0.10;0.10;;;27.00;91.70;;;;;;5077695;28;20505;-79
2023/10/11 12:31:44;;;;;;;0.08;0.08;;;26.70;91.30;;;;;;5077492;28;20568;-80
2023/10/11 12:34:11;;;;;;;0.63;0.57;;;26.90;90.90;;;;;;5077821;28;20116;-77
2023/10/11 12:36:41;;;;;;;0.10;0.10;;;27.00;90.90;;;;;;5059137;28;20146;-81
2023/10/11 12:39:20;;;;;;;0.55;0.50;;;25.50;90.30;;;;;;5077203;28;20051;-80
2023/10/11 12:41:49;;;;;;;0.10;0.10;;;27.00;90.90;;;;;;5059776;28;20020;-77
2023/10/11 12:44:15;;;;;;;0.10;0.10;;;27.10;90.20;;;;;;5077364;28;20467;-81
2023/10/11 12:46:41;;;;;;;18.42;1.45;;;27.50;90.40;;;;;;5059882;28;20020;-77
2023/10/11 12:49:13;;;;;;;0.32;0.32;;;27.70;90.40;;;;;;5059870;28;20523;-78
2023/10/11 12:51:44;;;;;;;0.03;0.03;;;27.70;89.30;;;;;;5077987;28;20120;-81
2023/10/11 12:54:14;;;;;;;0.65;0.55;;;28.40;89.80;;;;;;5077353;28;20035;-83
2023/10/11 12:56:43;;;;;;;0.30;0.30;;;27.80;89.20;;;;;;5078027;28;20043;-83
2023/10/11 12:59:16;;;;;;;0.00;0.00;;;30.40;90.00;;;;;;5060490;28;20390;-77
2023/10/11 13:01:55;;;;;;;0.60;0.52;;;27.70;88.60;;;;;;5043541;28;20438;-77
2023/10/11 13:04:30;;;;;;;0.52;0.40;;;27.80;87.90;;;;;;5060878;28;20032;-76
2023/10/11 13:06:59;;;;;;;0.15;0.15;;;27.90;88.70;;;;;;5058615;28;20016;-84
2023/10/11 13:09:29;;;;;;;0.45;0.45;;;28.20;87.00;;;;;;5077326;28;20643;-84
2023/10/11 13:11:58;;;;;;;0.25;0.25;;;28.40;86.50;;;;;;5059767;28;20031;-77
2023/10/11 13:14:24;;;;;;;0.17;0.17;;;28.30;86.00;;;;;;5061842;28;20034;-76
2023/10/11 13:16:55;;;;;;;0.10;0.10;;;28.50;85.90;;;;;;5060988;28;20013;-77
2023/10/11 13:19:24;;;;;;;0.70;0.63;;;28.70;85.30;;;;;;5063787;28;20111;-75
2023/10/11 13:21:53;;;;;;;0.50;0.45;;;28.80;84.60;;;;;;5082044;28;20055;-79
2023/10/11 13:24:24;;;;;;;0.25;0.25;;;28.80;83.90;;;;;;5079623;28;20028;-81
2023/10/11 13:26:58;;;;;;;1.88;0.80;;;29.00;84.10;;;;;;5060233;28;20209;-77
2023/10/11 13:29:25;;;;;;;0.40;0.40;;;29.10;82.90;;;;;;5078121;28;20020;-81
2023/10/11 13:31:53;;;;;;;0.65;0.43;;;28.90;82.60;;;;;;5059120;28;20620;-78
2023/10/11 13:34:34;;;;;;;0.10;0.10;;;25.80;81.30;;;;;;5078392;28;20467;-85
2023/10/11 13:37:00;;;;;;;0.55;0.38;;;29.10;83.10;;;;;;5080934;28;20387;-76
2023/10/11 13:39:39;;;;;;;0.10;0.10;;;29.30;82.80;;;;;;5062684;28;20375;-84
2023/10/11 13:42:09;;;;;;;4.95;0.77;;;29.40;82.90;;;;;;5067812;28;20208;-77
2023/10/11 13:44:39;;;;;;;0.68;0.68;;;29.40;81.80;;;;;;5066823;28;20024;-81
2023/10/11 13:47:04;;;;;;;2.40;1.25;;;29.20;81.90;;;;;;5064888;28;20350;-81
2023/10/11 13:49:35;;;;;;;1.60;1.02;;;29.10;81.70;;;;;;5081822;28;20028;-77
2023/10/11 13:52:07;;;;;;;0.45;0.35;;;29.30;80.70;;;;;;5081513;28;20024;-81
2023/10/11 13:54:36;;;;;;;0.10;0.10;;;29.30;81.80;;;;;;5080818;28;20217;-77
2023/10/11 13:57:17;;;;;;;1.27;1.17;;;29.50;81.40;;;;;;5062466;28;20020;-82
2023/10/11 13:59:47;;;;;;;0.25;0.25;;;29.60;80.50;;;;;;5062906;28;20445;-76
2023/10/11 14:07:37;;;;;;;0.45;0.45;;;29.50;79.30;;;;;;5080787;28;20024;-89
2023/10/11 14:10:22;;;;;;;0.63;0.45;;;30.30;78.90;;;;;;5080513;28;20077;-76
2023/10/11 14:12:48;;;;;;;0.40;0.40;;;29.70;78.10;;;;;;5079831;28;20016;-79
2023/10/11 14:15:18;;;;;;;2.70;0.57;;;29.80;77.50;;;;;;5061613;28;20570;-77
2023/10/11 14:17:47;;;;;;;0.20;0.20;;;30.00;77.50;;;;;;5080203;28;20079;-79
2023/10/11 14:20:19;;;;;;;0.10;0.10;;;29.00;75.60;;;;;;5079948;28;20628;-78
2023/10/11 14:22:54;;;;;;;0.10;0.10;;;30.10;77.00;;;;;;5063432;28;20464;-77
2023/10/11 14:25:20;;;;;;;0.35;0.35;;;30.30;76.40;;;;;;5080423;28;20501;-79